CCA1610 ZYCC-ZBAA
Flight info
| Callsign | CCA1610 |
|---|---|
| Flight time | 1h 36m |
| Altitude | 30100 |
| Route | BUTET3D BUTET G341 TGO G212 UKDUM W49 OSUBA OSUBA7X |
| Aircraft | A21N/M-SDE2E3FGHIRWXY/LB1 |
Departure
| Time | 2026-04-25 02:08 |
|---|---|
| Airport | Changchun Longjia International Airport (ZYCC) |
Arrival
| Time | 2026-04-25 03:45 |
|---|---|
| Airport | Beijing Capital International Airport (ZBAA) |
| Time | Latitude | Longitude | Altitude | Speed | Heading |
|---|---|---|---|---|---|
| 2026-04-25 01:53 | 43.99541 | 125.69207 | 715 ft | 0 kts | 139° |
| 2026-04-25 01:55 | 43.99545 | 125.69202 | 715 ft | 2 kts | 139° |
| 2026-04-25 01:55 | 43.99555 | 125.69190 | 715 ft | 2 kts | 139° |
| 2026-04-25 01:56 | 43.99565 | 125.69178 | 715 ft | 2 kts | 139° |
| 2026-04-25 01:56 | 43.99577 | 125.69166 | 715 ft | 2 kts | 158° |
| 2026-04-25 01:57 | 43.99606 | 125.69163 | 715 ft | 2 kts | 197° |
| 2026-04-25 01:57 | 43.99620 | 125.69171 | 715 ft | 2 kts | 218° |
| 2026-04-25 01:57 | 43.99626 | 125.69179 | 715 ft | 1 kts | 230° |
| 2026-04-25 01:58 | 43.99630 | 125.69186 | 715 ft | 0 kts | 230° |
| 2026-04-25 02:00 | 43.99611 | 125.69155 | 715 ft | 10 kts | 229° |
| 2026-04-25 02:00 | 43.99575 | 125.69099 | 715 ft | 10 kts | 230° |
| 2026-04-25 02:00 | 43.99556 | 125.69067 | 715 ft | 11 kts | 230° |
| 2026-04-25 02:00 | 43.99523 | 125.69013 | 715 ft | 12 kts | 230° |
| 2026-04-25 02:01 | 43.99511 | 125.68995 | 715 ft | 2 kts | 230° |
| 2026-04-25 02:01 | 43.99511 | 125.68994 | 715 ft | 3 kts | 230° |
| 2026-04-25 02:01 | 43.99494 | 125.68967 | 715 ft | 17 kts | 230° |
| 2026-04-25 02:01 | 43.99485 | 125.68952 | 715 ft | 20 kts | 230° |
| 2026-04-25 02:02 | 43.99448 | 125.68895 | 715 ft | 26 kts | 229° |
| 2026-04-25 02:02 | 43.99411 | 125.68837 | 715 ft | 13 kts | 229° |
| 2026-04-25 02:02 | 43.99349 | 125.68735 | 715 ft | 14 kts | 230° |
| 2026-04-25 02:02 | 43.99283 | 125.68628 | 715 ft | 15 kts | 229° |
| 2026-04-25 02:03 | 43.99221 | 125.68527 | 715 ft | 15 kts | 229° |
| 2026-04-25 02:03 | 43.99149 | 125.68411 | 715 ft | 16 kts | 230° |
| 2026-04-25 02:03 | 43.99077 | 125.68293 | 715 ft | 16 kts | 230° |
| 2026-04-25 02:03 | 43.99002 | 125.68173 | 715 ft | 16 kts | 229° |
| 2026-04-25 02:04 | 43.99020 | 125.68042 | 715 ft | 11 kts | 318° |
| 2026-04-25 02:04 | 43.99049 | 125.67947 | 715 ft | 11 kts | 255° |
| 2026-04-25 02:04 | 43.98996 | 125.67858 | 715 ft | 12 kts | 229° |
| 2026-04-25 02:04 | 43.98936 | 125.67761 | 715 ft | 13 kts | 229° |
| 2026-04-25 02:05 | 43.98873 | 125.67660 | 715 ft | 14 kts | 230° |
| 2026-04-25 02:05 | 43.98808 | 125.67553 | 715 ft | 14 kts | 229° |
| 2026-04-25 02:05 | 43.98738 | 125.67442 | 715 ft | 15 kts | 230° |
| 2026-04-25 02:05 | 43.98667 | 125.67327 | 715 ft | 15 kts | 229° |
| 2026-04-25 02:06 | 43.98597 | 125.67208 | 715 ft | 16 kts | 249° |
| 2026-04-25 02:06 | 43.98624 | 125.67110 | 715 ft | 0 kts | 319° |
| 2026-04-25 02:06 | 43.98635 | 125.67097 | 715 ft | 5 kts | 320° |
| 2026-04-25 02:07 | 43.98683 | 125.67053 | 715 ft | 9 kts | 343° |
| 2026-04-25 02:07 | 43.98745 | 125.67090 | 715 ft | 10 kts | 50° |
| 2026-04-25 02:07 | 43.98756 | 125.67107 | 715 ft | 0 kts | 49° |
| 2026-04-25 02:07 | 43.98857 | 125.67273 | 715 ft | 59 kts | 50° |
| 2026-04-25 02:08 | 43.99275 | 125.67942 | 715 ft | 123 kts | 49° |
| 2026-04-25 02:08 | 43.99954 | 125.69054 | 784 ft | 169 kts | 49° |
| 2026-04-25 02:08 | 44.00751 | 125.70351 | 1132 ft | 189 kts | 49° |
| 2026-04-25 02:08 | 44.01650 | 125.71772 | 1734 ft | 200 kts | 50° |
| 2026-04-25 02:09 | 44.02247 | 125.73435 | 2551 ft | 196 kts | 79° |
| 2026-04-25 02:09 | 44.02147 | 125.75317 | 3239 ft | 202 kts | 109° |
| 2026-04-25 02:09 | 44.01302 | 125.76862 | 3874 ft | 208 kts | 146° |
| 2026-04-25 02:09 | 43.99965 | 125.77576 | 4538 ft | 210 kts | 169° |
| 2026-04-25 02:10 | 43.98535 | 125.78062 | 5208 ft | 215 kts | 172° |
| 2026-04-25 02:10 | 43.97073 | 125.78547 | 5855 ft | 220 kts | 174° |
| 2026-04-25 02:10 | 43.95613 | 125.79033 | 6436 ft | 220 kts | 175° |
| 2026-04-25 02:10 | 43.94127 | 125.79527 | 7088 ft | 222 kts | 176° |
| 2026-04-25 02:11 | 43.92600 | 125.80029 | 7747 ft | 227 kts | 177° |
| 2026-04-25 02:11 | 43.91063 | 125.80537 | 8391 ft | 233 kts | 177° |
| 2026-04-25 02:11 | 43.89465 | 125.81063 | 8947 ft | 244 kts | 177° |
| 2026-04-25 02:11 | 43.87788 | 125.81621 | 9499 ft | 251 kts | 177° |
| 2026-04-25 02:12 | 43.86090 | 125.82193 | 10036 ft | 256 kts | 177° |
| 2026-04-25 02:12 | 43.84350 | 125.82779 | 10584 ft | 261 kts | 177° |
| 2026-04-25 02:12 | 43.82563 | 125.83235 | 11121 ft | 261 kts | 190° |
| 2026-04-25 02:12 | 43.80822 | 125.82845 | 11669 ft | 252 kts | 211° |
| 2026-04-25 02:13 | 43.79333 | 125.81616 | 12238 ft | 247 kts | 231° |
| 2026-04-25 02:13 | 43.78283 | 125.79810 | 12803 ft | 245 kts | 248° |
| 2026-04-25 02:13 | 43.77729 | 125.77579 | 13372 ft | 247 kts | 265° |
| 2026-04-25 02:13 | 43.77695 | 125.75214 | 13950 ft | 254 kts | 274° |
| 2026-04-25 02:14 | 43.77761 | 125.72720 | 14512 ft | 262 kts | 274° |
| 2026-04-25 02:14 | 43.77827 | 125.70185 | 15052 ft | 270 kts | 274° |
| 2026-04-25 02:14 | 43.77898 | 125.67579 | 15607 ft | 278 kts | 274° |
| 2026-04-25 02:14 | 43.77975 | 125.64871 | 16172 ft | 285 kts | 274° |
| 2026-04-25 02:15 | 43.78054 | 125.62113 | 16723 ft | 291 kts | 274° |
| 2026-04-25 02:15 | 43.78135 | 125.59324 | 17269 ft | 297 kts | 274° |
| 2026-04-25 02:15 | 43.78216 | 125.56457 | 17821 ft | 302 kts | 274° |
| 2026-04-25 02:15 | 43.78300 | 125.53543 | 18386 ft | 307 kts | 274° |
| 2026-04-25 02:16 | 43.78381 | 125.50615 | 18947 ft | 311 kts | 274° |
| 2026-04-25 02:16 | 43.78467 | 125.47617 | 19507 ft | 314 kts | 274° |
| 2026-04-25 02:16 | 43.78551 | 125.44617 | 20060 ft | 318 kts | 273° |
| 2026-04-25 02:16 | 43.78637 | 125.41519 | 20630 ft | 321 kts | 274° |
| 2026-04-25 02:17 | 43.78720 | 125.38454 | 21203 ft | 324 kts | 273° |
| 2026-04-25 02:17 | 43.78739 | 125.35325 | 21778 ft | 327 kts | 270° |
| 2026-04-25 02:17 | 43.78635 | 125.32198 | 22349 ft | 330 kts | 267° |
| 2026-04-25 02:17 | 43.78468 | 125.29053 | 22921 ft | 332 kts | 267° |
| 2026-04-25 02:18 | 43.78296 | 125.25884 | 23493 ft | 334 kts | 267° |
| 2026-04-25 02:18 | 43.78120 | 125.22665 | 24077 ft | 336 kts | 267° |
| 2026-04-25 02:18 | 43.77939 | 125.19443 | 24668 ft | 337 kts | 267° |
| 2026-04-25 02:18 | 43.77760 | 125.16259 | 25252 ft | 338 kts | 268° |
| 2026-04-25 02:19 | 43.77577 | 125.13005 | 25839 ft | 338 kts | 268° |
| 2026-04-25 02:19 | 43.77396 | 125.09782 | 26423 ft | 337 kts | 268° |
| 2026-04-25 02:19 | 43.77216 | 125.06567 | 27010 ft | 337 kts | 268° |
| 2026-04-25 02:19 | 43.77037 | 125.03363 | 27593 ft | 336 kts | 268° |
| 2026-04-25 02:20 | 43.76857 | 125.00182 | 28182 ft | 333 kts | 269° |
| 2026-04-25 02:20 | 43.76678 | 124.97019 | 28770 ft | 331 kts | 269° |
| 2026-04-25 02:20 | 43.76497 | 124.93864 | 29362 ft | 327 kts | 269° |
| 2026-04-25 02:20 | 43.76320 | 124.90784 | 29874 ft | 326 kts | 269° |
| 2026-04-25 02:21 | 43.76140 | 124.87643 | 30058 ft | 333 kts | 269° |
| 2026-04-25 02:21 | 43.75954 | 124.84395 | 30057 ft | 344 kts | 269° |
| 2026-04-25 02:21 | 43.75762 | 124.81053 | 30067 ft | 355 kts | 269° |
| 2026-04-25 02:22 | 43.75355 | 124.74045 | 30060 ft | 375 kts | 269° |
| 2026-04-25 02:22 | 43.74919 | 124.66734 | 30057 ft | 393 kts | 269° |
| 2026-04-25 02:23 | 43.74454 | 124.59063 | 30055 ft | 407 kts | 269° |
| 2026-04-25 02:23 | 43.73902 | 124.51291 | 30052 ft | 413 kts | 265° |
| 2026-04-25 02:24 | 43.72592 | 124.43546 | 30049 ft | 418 kts | 257° |
| 2026-04-25 02:24 | 43.70486 | 124.36056 | 30047 ft | 420 kts | 253° |
| 2026-04-25 02:25 | 43.68626 | 124.28443 | 30048 ft | 417 kts | 259° |
| 2026-04-25 02:25 | 43.67634 | 124.20609 | 30048 ft | 412 kts | 268° |
| 2026-04-25 02:26 | 43.67157 | 124.12759 | 30048 ft | 412 kts | 268° |
| 2026-04-25 02:26 | 43.66696 | 124.04874 | 30043 ft | 414 kts | 268° |
| 2026-04-25 02:27 | 43.66237 | 123.96987 | 30047 ft | 413 kts | 268° |
| 2026-04-25 02:27 | 43.65771 | 123.89121 | 30041 ft | 414 kts | 268° |
| 2026-04-25 02:28 | 43.65297 | 123.81167 | 30044 ft | 414 kts | 268° |
| 2026-04-25 02:28 | 43.64821 | 123.73302 | 30041 ft | 414 kts | 268° |
| 2026-04-25 02:29 | 43.64338 | 123.65398 | 30039 ft | 415 kts | 268° |
| 2026-04-25 02:29 | 43.63851 | 123.57494 | 30045 ft | 415 kts | 268° |
| 2026-04-25 02:30 | 43.63358 | 123.49603 | 30042 ft | 415 kts | 268° |
| 2026-04-25 02:30 | 43.62857 | 123.41670 | 30042 ft | 415 kts | 268° |
| 2026-04-25 02:31 | 43.62348 | 123.33733 | 30046 ft | 416 kts | 268° |
| 2026-04-25 02:31 | 43.61837 | 123.25840 | 30042 ft | 416 kts | 268° |
| 2026-04-25 02:32 | 43.61331 | 123.17882 | 30045 ft | 415 kts | 268° |
| 2026-04-25 02:32 | 43.60936 | 123.09988 | 30043 ft | 416 kts | 268° |
| 2026-04-25 02:33 | 43.60540 | 123.02062 | 30037 ft | 417 kts | 269° |
| 2026-04-25 02:33 | 43.60131 | 122.94061 | 30033 ft | 417 kts | 268° |
| 2026-04-25 02:34 | 43.59716 | 122.86155 | 30036 ft | 417 kts | 269° |
| 2026-04-25 02:34 | 43.59295 | 122.78200 | 30040 ft | 417 kts | 269° |
| 2026-04-25 02:35 | 43.58864 | 122.70215 | 30038 ft | 416 kts | 269° |
| 2026-04-25 02:35 | 43.58434 | 122.62320 | 30037 ft | 418 kts | 269° |
| 2026-04-25 02:36 | 43.57991 | 122.54340 | 30032 ft | 417 kts | 269° |
| 2026-04-25 02:36 | 43.57544 | 122.46375 | 30033 ft | 418 kts | 268° |
| 2026-04-25 02:37 | 43.57092 | 122.38439 | 30031 ft | 418 kts | 268° |
| 2026-04-25 02:37 | 43.56630 | 122.30438 | 30034 ft | 418 kts | 268° |
| 2026-04-25 02:38 | 43.55652 | 122.22566 | 30030 ft | 424 kts | 257° |
| 2026-04-25 02:38 | 43.53367 | 122.15030 | 30027 ft | 431 kts | 245° |
| 2026-04-25 02:39 | 43.50036 | 122.08148 | 30030 ft | 435 kts | 239° |
| 2026-04-25 02:39 | 43.46530 | 122.01390 | 30027 ft | 435 kts | 239° |
| 2026-04-25 02:40 | 43.43009 | 121.94626 | 30027 ft | 436 kts | 239° |
| 2026-04-25 02:40 | 43.39485 | 121.87865 | 30021 ft | 437 kts | 239° |
| 2026-04-25 02:41 | 43.35940 | 121.81074 | 30021 ft | 437 kts | 239° |
| 2026-04-25 02:41 | 43.32418 | 121.74341 | 30019 ft | 437 kts | 239° |
| 2026-04-25 02:42 | 43.28878 | 121.67590 | 30017 ft | 437 kts | 239° |
| 2026-04-25 02:42 | 43.25317 | 121.60812 | 30014 ft | 439 kts | 239° |
| 2026-04-25 02:43 | 43.21764 | 121.54067 | 30012 ft | 439 kts | 239° |
| 2026-04-25 02:43 | 43.18206 | 121.47328 | 30010 ft | 439 kts | 239° |
| 2026-04-25 02:44 | 43.14619 | 121.40547 | 29998 ft | 440 kts | 239° |
| 2026-04-25 02:44 | 43.11035 | 121.33791 | 30000 ft | 440 kts | 238° |
| 2026-04-25 02:45 | 43.07445 | 121.27036 | 29985 ft | 441 kts | 238° |
| 2026-04-25 02:45 | 43.03846 | 121.20280 | 29991 ft | 441 kts | 238° |
| 2026-04-25 02:46 | 43.00248 | 121.13542 | 29989 ft | 441 kts | 238° |
| 2026-04-25 02:46 | 42.96621 | 121.06764 | 29989 ft | 442 kts | 238° |
| 2026-04-25 02:47 | 42.93003 | 121.00019 | 29987 ft | 442 kts | 238° |
| 2026-04-25 02:47 | 42.89387 | 120.93291 | 29989 ft | 443 kts | 238° |
| 2026-04-25 02:48 | 42.85748 | 120.86540 | 29990 ft | 442 kts | 238° |
| 2026-04-25 02:48 | 42.82110 | 120.79803 | 29992 ft | 444 kts | 238° |
| 2026-04-25 02:49 | 42.78442 | 120.73025 | 29993 ft | 445 kts | 238° |
| 2026-04-25 02:49 | 42.74773 | 120.66264 | 29992 ft | 445 kts | 238° |
| 2026-04-25 02:50 | 42.71119 | 120.59540 | 29993 ft | 445 kts | 238° |
| 2026-04-25 02:50 | 42.67435 | 120.52783 | 29993 ft | 445 kts | 238° |
| 2026-04-25 02:51 | 42.63748 | 120.46033 | 29995 ft | 446 kts | 238° |
| 2026-04-25 02:51 | 42.60059 | 120.39294 | 29996 ft | 447 kts | 238° |
| 2026-04-25 02:52 | 42.56352 | 120.32536 | 29998 ft | 447 kts | 237° |
| 2026-04-25 02:52 | 42.52652 | 120.25810 | 29999 ft | 447 kts | 237° |
| 2026-04-25 02:53 | 42.49000 | 120.19184 | 29998 ft | 447 kts | 237° |
| 2026-04-25 02:53 | 42.45284 | 120.12455 | 29999 ft | 447 kts | 237° |
| 2026-04-25 02:54 | 42.41575 | 120.05755 | 30002 ft | 448 kts | 237° |
| 2026-04-25 02:54 | 42.37837 | 119.99018 | 30005 ft | 447 kts | 237° |
| 2026-04-25 02:55 | 42.34127 | 119.92347 | 30006 ft | 447 kts | 237° |
| 2026-04-25 02:55 | 42.30389 | 119.85637 | 30009 ft | 448 kts | 237° |
| 2026-04-25 02:56 | 42.26648 | 119.78939 | 30013 ft | 448 kts | 237° |
| 2026-04-25 02:56 | 42.22912 | 119.72268 | 30013 ft | 448 kts | 237° |
| 2026-04-25 02:57 | 42.19159 | 119.65578 | 30017 ft | 448 kts | 237° |
| 2026-04-25 02:57 | 42.15405 | 119.58901 | 30018 ft | 448 kts | 237° |
| 2026-04-25 02:58 | 42.11655 | 119.52245 | 30019 ft | 448 kts | 237° |
| 2026-04-25 02:58 | 42.07899 | 119.45596 | 30018 ft | 448 kts | 237° |
| 2026-04-25 02:59 | 42.04117 | 119.38914 | 30016 ft | 448 kts | 237° |
| 2026-04-25 02:59 | 42.00346 | 119.32269 | 30016 ft | 449 kts | 236° |
| 2026-04-25 03:00 | 41.96561 | 119.25610 | 30018 ft | 450 kts | 236° |
| 2026-04-25 03:00 | 41.92763 | 119.18944 | 30022 ft | 451 kts | 236° |
| 2026-04-25 03:01 | 41.88966 | 119.12296 | 30018 ft | 451 kts | 236° |
| 2026-04-25 03:01 | 41.85147 | 119.05621 | 30027 ft | 452 kts | 236° |
| 2026-04-25 03:02 | 41.81327 | 118.98962 | 30036 ft | 452 kts | 236° |
| 2026-04-25 03:02 | 41.77479 | 118.92269 | 30042 ft | 453 kts | 236° |
| 2026-04-25 03:03 | 41.73653 | 118.85626 | 30053 ft | 453 kts | 236° |
| 2026-04-25 03:03 | 41.69804 | 118.78962 | 30067 ft | 453 kts | 236° |
| 2026-04-25 03:04 | 41.65948 | 118.72299 | 30070 ft | 454 kts | 236° |
| 2026-04-25 03:04 | 41.62085 | 118.65638 | 30068 ft | 455 kts | 236° |
| 2026-04-25 03:05 | 41.56274 | 118.55647 | 30076 ft | 455 kts | 236° |
| 2026-04-25 03:05 | 41.52571 | 118.48900 | 30074 ft | 451 kts | 244° |
| 2026-04-25 03:06 | 41.50323 | 118.41183 | 30086 ft | 444 kts | 261° |
| 2026-04-25 03:06 | 41.49849 | 118.33113 | 30088 ft | 439 kts | 272° |
| 2026-04-25 03:07 | 41.49955 | 118.24986 | 30091 ft | 439 kts | 273° |
| 2026-04-25 03:07 | 41.50063 | 118.16821 | 30084 ft | 440 kts | 273° |
| 2026-04-25 03:08 | 41.50152 | 118.08736 | 29829 ft | 438 kts | 273° |
| 2026-04-25 03:08 | 41.50193 | 118.04644 | 29673 ft | 436 kts | 273° |
| 2026-04-25 03:08 | 41.50229 | 118.00668 | 29341 ft | 427 kts | 273° |
| 2026-04-25 03:09 | 41.50263 | 117.96768 | 28943 ft | 417 kts | 273° |
| 2026-04-25 03:09 | 41.50296 | 117.92929 | 28551 ft | 408 kts | 273° |
| 2026-04-25 03:09 | 41.50326 | 117.89219 | 28157 ft | 401 kts | 272° |
| 2026-04-25 03:09 | 41.50355 | 117.85535 | 27781 ft | 395 kts | 272° |
| 2026-04-25 03:10 | 41.50384 | 117.81906 | 27576 ft | 394 kts | 272° |
| 2026-04-25 03:10 | 41.50412 | 117.78268 | 27399 ft | 394 kts | 272° |
| 2026-04-25 03:10 | 41.50438 | 117.74628 | 27244 ft | 393 kts | 272° |
| 2026-04-25 03:10 | 41.50461 | 117.71021 | 27103 ft | 391 kts | 272° |
| 2026-04-25 03:11 | 41.50484 | 117.67412 | 26962 ft | 390 kts | 272° |
| 2026-04-25 03:11 | 41.50506 | 117.63802 | 26824 ft | 390 kts | 272° |
| 2026-04-25 03:11 | 41.50527 | 117.60169 | 26691 ft | 389 kts | 272° |
| 2026-04-25 03:11 | 41.50547 | 117.56588 | 26577 ft | 389 kts | 272° |
| 2026-04-25 03:12 | 41.50565 | 117.52970 | 26473 ft | 388 kts | 272° |
| 2026-04-25 03:12 | 41.50582 | 117.49411 | 26374 ft | 387 kts | 272° |
| 2026-04-25 03:12 | 41.50597 | 117.45848 | 26272 ft | 386 kts | 272° |
| 2026-04-25 03:12 | 41.50612 | 117.42246 | 26185 ft | 386 kts | 272° |
| 2026-04-25 03:13 | 41.50626 | 117.38679 | 26111 ft | 385 kts | 272° |
| 2026-04-25 03:13 | 41.50465 | 117.35117 | 26004 ft | 388 kts | 262° |
| 2026-04-25 03:13 | 41.49660 | 117.31682 | 25888 ft | 391 kts | 248° |
| 2026-04-25 03:13 | 41.48246 | 117.28577 | 25777 ft | 396 kts | 234° |
| 2026-04-25 03:14 | 41.46294 | 117.25983 | 25669 ft | 401 kts | 221° |
| 2026-04-25 03:14 | 41.43873 | 117.24057 | 25555 ft | 407 kts | 207° |
| 2026-04-25 03:14 | 41.41180 | 117.22948 | 25465 ft | 412 kts | 197° |
| 2026-04-25 03:14 | 41.38377 | 117.22134 | 25424 ft | 412 kts | 195° |
| 2026-04-25 03:15 | 41.35552 | 117.21347 | 25383 ft | 412 kts | 195° |
| 2026-04-25 03:15 | 41.32773 | 117.20570 | 25316 ft | 409 kts | 195° |
| 2026-04-25 03:15 | 41.30001 | 117.19790 | 24909 ft | 405 kts | 195° |
| 2026-04-25 03:15 | 41.27266 | 117.19013 | 24307 ft | 403 kts | 195° |
| 2026-04-25 03:16 | 41.24548 | 117.18237 | 23763 ft | 400 kts | 195° |
| 2026-04-25 03:16 | 41.21854 | 117.17468 | 23259 ft | 396 kts | 195° |
| 2026-04-25 03:16 | 41.19170 | 117.16700 | 22750 ft | 393 kts | 195° |
| 2026-04-25 03:16 | 41.16530 | 117.15945 | 22237 ft | 390 kts | 195° |
| 2026-04-25 03:17 | 41.13890 | 117.15188 | 21723 ft | 387 kts | 195° |
| 2026-04-25 03:17 | 41.11244 | 117.14430 | 21202 ft | 384 kts | 195° |
| 2026-04-25 03:17 | 41.08651 | 117.13689 | 20699 ft | 382 kts | 195° |
| 2026-04-25 03:17 | 41.06089 | 117.12957 | 20211 ft | 379 kts | 195° |
| 2026-04-25 03:18 | 41.03521 | 117.12225 | 19713 ft | 376 kts | 194° |
| 2026-04-25 03:18 | 41.00986 | 117.11502 | 19218 ft | 374 kts | 194° |
| 2026-04-25 03:18 | 40.98423 | 117.10772 | 18725 ft | 371 kts | 194° |
| 2026-04-25 03:18 | 40.95921 | 117.10059 | 18251 ft | 369 kts | 194° |
| 2026-04-25 03:19 | 40.93437 | 117.09354 | 17779 ft | 366 kts | 194° |
| 2026-04-25 03:19 | 40.90958 | 117.08651 | 17302 ft | 364 kts | 194° |
| 2026-04-25 03:19 | 40.88497 | 117.07951 | 16831 ft | 361 kts | 194° |
| 2026-04-25 03:19 | 40.86046 | 117.07256 | 16357 ft | 358 kts | 194° |
| 2026-04-25 03:20 | 40.83590 | 117.06557 | 15887 ft | 356 kts | 194° |
| 2026-04-25 03:20 | 40.81179 | 117.05875 | 15426 ft | 353 kts | 194° |
| 2026-04-25 03:20 | 40.78786 | 117.05196 | 14967 ft | 350 kts | 194° |
| 2026-04-25 03:20 | 40.76426 | 117.04520 | 14515 ft | 347 kts | 196° |
| 2026-04-25 03:21 | 40.74149 | 117.03482 | 14052 ft | 342 kts | 207° |
| 2026-04-25 03:21 | 40.72123 | 117.01949 | 13595 ft | 338 kts | 217° |
| 2026-04-25 03:21 | 40.70291 | 116.99998 | 13139 ft | 334 kts | 223° |
| 2026-04-25 03:21 | 40.68574 | 116.98009 | 12726 ft | 330 kts | 223° |
| 2026-04-25 03:22 | 40.66845 | 116.96002 | 12296 ft | 327 kts | 223° |
| 2026-04-25 03:22 | 40.65155 | 116.94074 | 11879 ft | 324 kts | 223° |
| 2026-04-25 03:22 | 40.63444 | 116.92131 | 11796 ft | 322 kts | 222° |
| 2026-04-25 03:22 | 40.61752 | 116.90215 | 11777 ft | 323 kts | 223° |
| 2026-04-25 03:23 | 40.60059 | 116.88301 | 11761 ft | 323 kts | 223° |
| 2026-04-25 03:23 | 40.58357 | 116.86378 | 11751 ft | 323 kts | 223° |
| 2026-04-25 03:23 | 40.56656 | 116.84457 | 11762 ft | 323 kts | 222° |
| 2026-04-25 03:23 | 40.54940 | 116.82523 | 11759 ft | 323 kts | 222° |
| 2026-04-25 03:24 | 40.53251 | 116.80618 | 11764 ft | 324 kts | 222° |
| 2026-04-25 03:24 | 40.51533 | 116.78684 | 11766 ft | 324 kts | 222° |
| 2026-04-25 03:24 | 40.49814 | 116.76750 | 11764 ft | 323 kts | 222° |
| 2026-04-25 03:24 | 40.48106 | 116.74828 | 11774 ft | 324 kts | 222° |
| 2026-04-25 03:25 | 40.46410 | 116.72922 | 11769 ft | 324 kts | 222° |
| 2026-04-25 03:25 | 40.44698 | 116.71000 | 11766 ft | 324 kts | 222° |
| 2026-04-25 03:25 | 40.42844 | 116.69292 | 11752 ft | 327 kts | 207° |
| 2026-04-25 03:25 | 40.40691 | 116.68411 | 11752 ft | 330 kts | 190° |
| 2026-04-25 03:26 | 40.38382 | 116.68402 | 11759 ft | 333 kts | 176° |
| 2026-04-25 03:26 | 40.36078 | 116.68759 | 11750 ft | 333 kts | 175° |
| 2026-04-25 03:26 | 40.33762 | 116.69149 | 11742 ft | 334 kts | 175° |
| 2026-04-25 03:26 | 40.31477 | 116.69527 | 11755 ft | 334 kts | 175° |
| 2026-04-25 03:27 | 40.29174 | 116.69900 | 11746 ft | 333 kts | 175° |
| 2026-04-25 03:27 | 40.26867 | 116.70266 | 11757 ft | 333 kts | 175° |
| 2026-04-25 03:27 | 40.24553 | 116.70630 | 11737 ft | 333 kts | 175° |
| 2026-04-25 03:27 | 40.22274 | 116.70985 | 11749 ft | 333 kts | 175° |
| 2026-04-25 03:28 | 40.19976 | 116.71343 | 11715 ft | 333 kts | 175° |
| 2026-04-25 03:28 | 40.17675 | 116.71699 | 11418 ft | 331 kts | 175° |
| 2026-04-25 03:28 | 40.15397 | 116.72051 | 11152 ft | 329 kts | 175° |
| 2026-04-25 03:28 | 40.13100 | 116.72408 | 10924 ft | 328 kts | 175° |
| 2026-04-25 03:29 | 40.10855 | 116.72755 | 10690 ft | 326 kts | 175° |
| 2026-04-25 03:29 | 40.08606 | 116.73101 | 10461 ft | 325 kts | 175° |
| 2026-04-25 03:29 | 40.06368 | 116.73447 | 10220 ft | 317 kts | 175° |
| 2026-04-25 03:29 | 40.04243 | 116.73776 | 10085 ft | 304 kts | 175° |
| 2026-04-25 03:30 | 40.02168 | 116.74097 | 9971 ft | 292 kts | 175° |
| 2026-04-25 03:30 | 40.00199 | 116.74402 | 9742 ft | 286 kts | 175° |
| 2026-04-25 03:30 | 39.98231 | 116.74705 | 9486 ft | 280 kts | 175° |
| 2026-04-25 03:30 | 39.96328 | 116.74997 | 9173 ft | 276 kts | 175° |
| 2026-04-25 03:31 | 39.94428 | 116.75290 | 8874 ft | 271 kts | 175° |
| 2026-04-25 03:31 | 39.92559 | 116.75577 | 8545 ft | 269 kts | 175° |
| 2026-04-25 03:31 | 39.90723 | 116.75859 | 8231 ft | 266 kts | 176° |
| 2026-04-25 03:31 | 39.88883 | 116.76142 | 7955 ft | 262 kts | 176° |
| 2026-04-25 03:32 | 39.88437 | 116.76211 | 7886 ft | 261 kts | 176° |
| 2026-04-25 03:32 | 39.86939 | 116.76475 | 7803 ft | 257 kts | 182° |
| 2026-04-25 03:32 | 39.85169 | 116.76749 | 7533 ft | 252 kts | 182° |
| 2026-04-25 03:32 | 39.83448 | 116.77000 | 7254 ft | 248 kts | 182° |
| 2026-04-25 03:33 | 39.81730 | 116.77251 | 6970 ft | 244 kts | 182° |
| 2026-04-25 03:33 | 39.80053 | 116.77499 | 6657 ft | 240 kts | 181° |
| 2026-04-25 03:33 | 39.78418 | 116.77741 | 6351 ft | 236 kts | 180° |
| 2026-04-25 03:33 | 39.76804 | 116.77982 | 6048 ft | 232 kts | 178° |
| 2026-04-25 03:34 | 39.75201 | 116.78223 | 5760 ft | 229 kts | 177° |
| 2026-04-25 03:34 | 39.73644 | 116.78464 | 5557 ft | 223 kts | 176° |
| 2026-04-25 03:34 | 39.72132 | 116.78700 | 5368 ft | 217 kts | 176° |
| 2026-04-25 03:34 | 39.70631 | 116.78897 | 5158 ft | 212 kts | 184° |
| 2026-04-25 03:35 | 39.69286 | 116.78346 | 4941 ft | 203 kts | 219° |
| 2026-04-25 03:35 | 39.68441 | 116.76916 | 4760 ft | 204 kts | 249° |
| 2026-04-25 03:35 | 39.68191 | 116.75104 | 4602 ft | 206 kts | 262° |
| 2026-04-25 03:35 | 39.68038 | 116.73254 | 4477 ft | 205 kts | 261° |
| 2026-04-25 03:36 | 39.67878 | 116.71431 | 4213 ft | 204 kts | 261° |
| 2026-04-25 03:36 | 39.67727 | 116.69576 | 4011 ft | 206 kts | 267° |
| 2026-04-25 03:36 | 39.68126 | 116.67809 | 3766 ft | 214 kts | 308° |
| 2026-04-25 03:36 | 39.69403 | 116.66804 | 3497 ft | 221 kts | 349° |
| 2026-04-25 03:37 | 39.70944 | 116.66698 | 3241 ft | 223 kts | 360° |
| 2026-04-25 03:37 | 39.72499 | 116.66706 | 2963 ft | 222 kts | 358° |
| 2026-04-25 03:37 | 39.74014 | 116.66640 | 2756 ft | 218 kts | 356° |
| 2026-04-25 03:37 | 39.75522 | 116.66493 | 2568 ft | 213 kts | 354° |
| 2026-04-25 03:38 | 39.76971 | 116.66309 | 2507 ft | 200 kts | 353° |
| 2026-04-25 03:38 | 39.78275 | 116.66125 | 2539 ft | 178 kts | 353° |
| 2026-04-25 03:38 | 39.79428 | 116.65954 | 2512 ft | 158 kts | 352° |
| 2026-04-25 03:38 | 39.80513 | 116.65787 | 2497 ft | 155 kts | 352° |
| 2026-04-25 03:39 | 39.81590 | 116.65617 | 2497 ft | 155 kts | 352° |
| 2026-04-25 03:39 | 39.82660 | 116.65446 | 2498 ft | 154 kts | 352° |
| 2026-04-25 03:39 | 39.83717 | 116.65276 | 2499 ft | 153 kts | 352° |
| 2026-04-25 03:39 | 39.84786 | 116.65105 | 2499 ft | 153 kts | 352° |
| 2026-04-25 03:40 | 39.85843 | 116.64935 | 2501 ft | 153 kts | 352° |
| 2026-04-25 03:40 | 39.86906 | 116.64765 | 2500 ft | 153 kts | 352° |
| 2026-04-25 03:40 | 39.87965 | 116.64597 | 2502 ft | 154 kts | 352° |
| 2026-04-25 03:40 | 39.89031 | 116.64426 | 2503 ft | 154 kts | 352° |
| 2026-04-25 03:41 | 39.90101 | 116.64256 | 2520 ft | 154 kts | 352° |
| 2026-04-25 03:41 | 39.91169 | 116.64088 | 2521 ft | 154 kts | 352° |
| 2026-04-25 03:41 | 39.92233 | 116.63919 | 2523 ft | 154 kts | 352° |
| 2026-04-25 03:41 | 39.93292 | 116.63751 | 2491 ft | 154 kts | 353° |
| 2026-04-25 03:42 | 39.94366 | 116.63582 | 2310 ft | 153 kts | 353° |
| 2026-04-25 03:42 | 39.95417 | 116.63416 | 2110 ft | 152 kts | 353° |
| 2026-04-25 03:42 | 39.96472 | 116.63249 | 1912 ft | 152 kts | 353° |
| 2026-04-25 03:42 | 39.97524 | 116.63083 | 1722 ft | 151 kts | 353° |
| 2026-04-25 03:43 | 39.98554 | 116.62920 | 1531 ft | 150 kts | 353° |
| 2026-04-25 03:43 | 39.99595 | 116.62757 | 1335 ft | 149 kts | 353° |
| 2026-04-25 03:43 | 40.00623 | 116.62595 | 1143 ft | 148 kts | 353° |
| 2026-04-25 03:43 | 40.01635 | 116.62437 | 955 ft | 146 kts | 352° |
| 2026-04-25 03:44 | 40.02646 | 116.62277 | 763 ft | 145 kts | 353° |
| 2026-04-25 03:44 | 40.03647 | 116.62120 | 577 ft | 144 kts | 352° |
| 2026-04-25 03:44 | 40.04648 | 116.61961 | 384 ft | 143 kts | 353° |
| 2026-04-25 03:44 | 40.05627 | 116.61800 | 218 ft | 142 kts | 353° |
| 2026-04-25 03:45 | 40.06611 | 116.61653 | 125 ft | 138 kts | 353° |
| 2026-04-25 03:45 | 40.07301 | 116.61541 | 124 ft | 55 kts | 355° |
| 2026-04-25 03:45 | 40.07552 | 116.61505 | 124 ft | 32 kts | 353° |
| 2026-04-25 03:45 | 40.07747 | 116.61462 | 124 ft | 24 kts | 341° |
| 2026-04-25 03:46 | 40.07887 | 116.61363 | 124 ft | 16 kts | 325° |
| 2026-04-25 03:46 | 40.07938 | 116.61317 | 124 ft | 8 kts | 325° |
| 2026-04-25 03:46 | 40.08000 | 116.61259 | 124 ft | 14 kts | 324° |
| 2026-04-25 03:46 | 40.08082 | 116.61173 | 124 ft | 15 kts | 304° |
| 2026-04-25 03:47 | 40.08058 | 116.61073 | 124 ft | 14 kts | 185° |
| 2026-04-25 03:47 | 40.07988 | 116.61081 | 124 ft | 11 kts | 173° |
| 2026-04-25 03:47 | 40.07875 | 116.61098 | 124 ft | 18 kts | 173° |
| 2026-04-25 03:47 | 40.07746 | 116.61111 | 124 ft | 17 kts | 207° |
| 2026-04-25 03:48 | 40.07671 | 116.60987 | 124 ft | 17 kts | 230° |
| 2026-04-25 03:48 | 40.07570 | 116.60905 | 124 ft | 17 kts | 197° |
| 2026-04-25 03:48 | 40.07452 | 116.60896 | 124 ft | 17 kts | 172° |
| 2026-04-25 03:48 | 40.07330 | 116.60915 | 124 ft | 19 kts | 173° |
| 2026-04-25 03:49 | 40.07193 | 116.60939 | 124 ft | 19 kts | 173° |
| 2026-04-25 03:49 | 40.07055 | 116.60960 | 124 ft | 19 kts | 173° |
| 2026-04-25 03:49 | 40.06934 | 116.60936 | 124 ft | 18 kts | 247° |
| 2026-04-25 03:49 | 40.06915 | 116.60770 | 124 ft | 18 kts | 263° |
| 2026-04-25 03:50 | 40.06899 | 116.60605 | 124 ft | 18 kts | 263° |
| 2026-04-25 03:50 | 40.06882 | 116.60466 | 124 ft | 13 kts | 244° |
| 2026-04-25 03:50 | 40.06800 | 116.60435 | 124 ft | 13 kts | 171° |
| 2026-04-25 03:50 | 40.06700 | 116.60451 | 124 ft | 15 kts | 174° |
| 2026-04-25 03:51 | 40.06594 | 116.60467 | 124 ft | 15 kts | 172° |
| 2026-04-25 03:51 | 40.06578 | 116.60546 | 124 ft | 8 kts | 101° |
| 2026-04-25 03:51 | 40.06575 | 116.60591 | 124 ft | 3 kts | 83° |
| 2026-04-25 03:51 | 40.06577 | 116.60611 | 124 ft | 0 kts | 83° |